Latest Weather Observations for Cape Moreton

IDQ60801

Issued at 9:35 am EST Thursday 24 July 2014 (issued every 30 minutes, with the page automatically refreshed every 10 minutes)

About weather observations | Map of weather stations | Latest weather observations for QLD | Other Formats
Station Details ID: 040043 Name: CAPE MORETON LIGHTHOUSE Lat: -27.03 Lon: 153.47 Height: 99.9 m
Data from the previous 72 hours. | See also: Recent months at Cape Moreton
Date/Time
EST
Temp
°C
App
Temp
°C
Dew
Point
Rel
Hum
%
Delta-T
°C
Wind Press
QNH
hPa
Press
MSL
hPa
Rain
since 9 am
mm
Dir
 
Spd
km/h
Gust
km/h
Spd
kts
Gust
kts
24/09:30am 19.3 18.1 13.9 71 3.1 SSE 13 17 7 9 1023.2 - -
24/09:00am 18.3 17.0 13.6 74 2.7 SSE 13 19 7 10 1023.2 1023.0 -
24/08:30am 17.3 16.0 13.6 79 2.1 S 13 17 7 9 1022.8 - -
24/08:00am 16.0 13.9 12.4 79 2.0 S 15 19 8 10 1022.7 1022.6 -
24/07:30am 15.3 13.0 11.7 79 2.0 S 15 19 8 10 1022.8 - -
24/07:00am 15.6 13.1 12.4 81 1.8 S 17 19 9 10 1022.3 1022.2 -
24/06:30am 15.4 13.1 11.8 79 2.0 S 15 17 8 9 1022.0 - -
24/06:00am 15.7 13.6 12.3 80 1.9 S 15 17 8 9 1021.7 1021.6 -
24/05:30am 15.5 13.2 11.9 79 2.0 S 15 19 8 10 1021.5 - -
24/05:00am 17.0 14.6 11.5 70 3.0 ESE 15 20 8 11 1021.2 1021.1 -
24/04:30am 17.1 13.8 10.9 67 3.3 E 19 20 10 11 1020.9 - -
24/04:00am 17.0 13.9 11.5 70 3.0 ESE 19 22 10 12 1020.8 1020.7 -
24/03:30am 17.0 13.8 11.1 68 3.2 ESE 19 24 10 13 1021.0 - -
24/03:00am 17.1 13.9 11.8 71 2.9 ESE 20 28 11 15 1021.2 1021.1 -
24/02:30am 17.2 13.4 11.0 67 3.4 ESE 22 26 12 14 1021.1 - -
24/02:00am 17.3 13.5 11.3 68 3.3 ESE 22 26 12 14 1021.2 1021.1 -
24/01:30am 17.2 13.1 11.5 69 3.1 ESE 24 30 13 16 1021.3 - -
24/01:00am 17.3 12.5 11.8 70 3.0 ESE 28 33 15 18 1021.2 1021.1 -
24/12:30am 17.3 12.3 11.1 67 3.4 ESE 28 33 15 18 1021.3 - -
24/12:00am 17.2 11.6 10.3 64 3.7 ESE 30 35 16 19 1021.2 1021.1 -
 
Date/Time
EST
Temp
°C
App
Temp
°C
Dew
Point
Rel
Hum
%
Delta-T
°C
Wind Press
QNH
hPa
Press
MSL
hPa
Rain
since 9 am
mm
Dir
 
Spd
km/h
Gust
km/h
Spd
kts
Gust
kts
23/11:30pm 17.2 13.0 11.0 67 3.4 ESE 24 30 13 16 1022.0 - -
23/11:00pm 17.0 12.9 11.5 70 3.0 ESE 24 32 13 17 1022.0 1021.9 -
23/10:30pm 17.0 12.3 11.9 72 2.8 ESE 28 35 15 19 1021.9 - -
23/10:00pm 17.1 12.5 12.4 74 2.6 ESE 28 33 15 18 1022.1 1022.0 -
23/09:30pm 16.9 11.3 11.6 71 2.9 ESE 32 37 17 20 1022.1 - -
23/09:00pm 17.0 11.1 12.3 74 2.6 ESE 35 41 19 22 1021.8 1021.7 -
23/08:30pm 17.0 11.1 12.5 75 2.5 ESE 35 43 19 23 1021.3 - -
23/08:00pm 17.2 11.1 11.9 71 2.9 ESE 35 43 19 23 1021.4 1021.3 -
23/07:30pm 17.2 11.2 12.1 72 2.8 ESE 35 43 19 23 1021.3 - -
23/07:00pm 17.2 11.2 12.1 72 2.8 SE 35 43 19 23 1021.0 1020.9 -
23/06:30pm 17.1 11.5 11.6 70 3.0 SE 32 41 17 22 1021.3 - -
23/06:00pm 17.1 11.6 12.0 72 2.8 SE 32 39 17 21 1020.9 1020.8 -
23/05:30pm 17.1 11.6 12.0 72 2.8 SE 32 37 17 20 1020.7 - -
23/05:00pm 17.1 11.5 11.6 70 3.0 SE 32 37 17 20 1020.5 1020.4 -
23/04:30pm 17.4 12.2 11.7 69 3.1 SE 30 37 16 20 1020.3 - -
23/04:00pm 17.6 12.7 11.4 67 3.4 SE 28 35 15 19 1020.5 1020.4 -
23/03:30pm 17.5 12.5 10.9 65 3.6 SSE 28 35 15 19 1020.6 - -
23/03:00pm 17.5 12.6 11.3 67 3.4 SSE 28 33 15 18 1020.6 1020.5 -
23/02:30pm 17.7 13.2 11.5 67 3.4 SSE 26 35 14 19 1020.7 - -
23/02:00pm 18.0 13.4 12.2 69 3.2 SSE 28 35 15 19 1020.5 1020.4 -
23/01:30pm 18.1 14.3 12.3 69 3.2 SSE 24 33 13 18 1020.5 - -
23/01:00pm 17.6 13.7 12.1 70 3.0 SSE 24 33 13 18 1020.6 1020.5 -
23/12:30pm 17.7 13.7 11.9 69 3.2 S 24 32 13 17 1021.0 - -
23/12:00pm 17.8 13.9 12.0 69 3.2 S 24 35 13 19 1021.6 1021.5 -
23/11:30am 17.6 14.0 11.8 69 3.2 S 22 30 12 16 1022.1 - -
23/11:00am 17.4 13.4 11.9 70 3.0 S 24 32 13 17 1022.4 1022.3 -
23/10:30am 17.4 13.7 11.4 68 3.3 S 22 32 12 17 1022.9 - -
23/10:00am 17.0 12.9 11.3 69 3.1 S 24 33 13 18 1023.2 1023.0 -
23/09:30am 16.4 12.1 10.9 70 3.0 S 24 32 13 17 1023.3 - -
23/09:00am 16.0 12.2 11.0 72 2.7 S 22 30 12 16 1023.1 1022.9 -
23/08:30am 15.4 11.2 11.2 76 2.3 SSW 24 33 13 18 1022.7 - -
23/08:00am 14.8 10.5 10.8 77 2.1 SSW 24 35 13 19 1022.3 1022.2 -
23/07:30am 13.9 9.2 10.7 81 1.7 SSW 26 32 14 17 1021.9 - -
23/07:00am 13.7 8.7 11.0 84 1.4 SSW 28 33 15 18 1021.6 1021.5 -
23/06:30am 13.6 9.0 11.1 85 1.3 SSW 26 33 14 18 1021.2 - -
23/06:00am 13.8 9.3 11.5 86 1.2 SSW 26 33 14 18 1020.6 1020.5 -
23/05:30am 14.1 9.7 11.6 85 1.3 SSW 26 33 14 18 1020.4 - -
23/05:00am 14.1 9.6 11.3 83 1.5 SSW 26 33 14 18 1020.1 1020.0 -
23/04:30am 14.2 9.2 11.0 81 1.7 SSW 28 33 15 18 1019.9 - -
23/04:00am 14.0 9.6 10.4 79 1.9 SSW 24 32 13 17 1019.8 1019.7 -
23/03:30am 13.5 9.4 10.1 80 1.8 SSW 22 30 12 16 1020.1 - -
23/03:00am 13.7 9.3 10.3 80 1.8 SSW 24 30 13 16 1020.3 1020.2 -
23/02:30am 13.7 9.8 10.9 83 1.5 SSW 22 30 12 16 1020.6 - -
23/02:00am 14.9 12.1 11.3 79 1.9 SSW 17 20 9 11 1020.6 1020.5 -
23/01:30am 16.4 11.8 11.1 71 2.9 ESE 26 32 14 17 1020.4 - -
23/01:00am 16.5 11.5 12.1 75 2.4 SE 30 37 16 20 1020.3 1020.2 -
23/12:30am 16.5 12.0 12.5 77 2.2 SSE 28 35 15 19 1020.7 - -
23/12:00am 16.5 11.5 12.3 76 2.3 SE 30 33 16 18 1020.8 1020.7 -
 
Date/Time
EST
Temp
°C
App
Temp
°C
Dew
Point
Rel
Hum
%
Delta-T
°C
Wind Press
QNH
hPa
Press
MSL
hPa
Rain
since 9 am
mm
Dir
 
Spd
km/h
Gust
km/h
Spd
kts
Gust
kts
22/11:30pm 17.0 11.7 12.5 75 2.5 SE 32 39 17 21 1020.7 - -
22/11:00pm 16.7 9.5 9.1 61 3.9 SE 37 43 20 23 1020.8 1020.7 -
22/10:30pm 17.0 11.8 11.7 71 2.9 SE 30 37 16 20 1021.1 - -
22/10:00pm 17.1 11.6 11.8 71 2.9 SE 32 41 17 22 1021.4 1021.3 -
22/09:30pm 17.1 11.5 12.0 72 2.8 SE 33 39 18 21 1021.2 - -
22/09:00pm 17.1 11.8 13.0 77 2.3 SE 33 39 18 21 1021.1 1021.0 -
22/08:30pm 17.1 11.8 13.0 77 2.3 SE 33 39 18 21 1021.0 - -
22/08:00pm 16.9 12.0 12.6 76 2.4 SE 30 35 16 19 1021.0 1020.9 -
22/07:30pm 16.6 11.4 11.5 72 2.8 SE 30 39 16 21 1020.9 - -
22/07:00pm 16.7 11.8 13.6 82 1.7 SE 32 39 17 21 1020.7 1020.6 -
22/06:30pm 15.3 9.3 13.3 88 1.1 ESE 37 46 20 25 1020.3 - -
22/06:00pm 17.4 12.7 13.3 77 2.3 SE 30 37 16 20 1020.2 1020.1 -
22/05:30pm 17.3 13.0 12.2 72 2.8 SE 26 32 14 17 1019.9 - -
22/05:00pm 17.4 13.2 12.5 73 2.7 ESE 26 32 14 17 1019.6 1019.5 -
22/04:30pm 17.6 12.6 12.3 71 2.9 SE 30 35 16 19 1019.2 - -
22/04:00pm 17.8 13.2 12.3 70 3.0 ESE 28 32 15 17 1019.1 1019.0 -
22/03:30pm 18.0 14.0 12.9 72 2.9 SE 26 32 14 17 1019.0 - -
22/03:00pm 18.6 16.2 12.8 69 3.3 SE 17 20 9 11 1019.0 1018.9 -
22/02:30pm 18.4 15.7 12.8 70 3.2 SE 19 20 10 11 1019.1 - -
22/02:00pm 18.9 16.5 13.7 72 3.0 SE 19 22 10 12 1019.2 1019.1 -
22/01:30pm 19.1 16.9 13.3 69 3.3 SSE 17 20 9 11 1019.4 - -
22/01:00pm 19.2 16.4 13.2 68 3.4 SSE 20 26 11 14 1019.7 1019.6 -
22/12:30pm 18.9 15.4 13.5 71 3.1 SE 24 28 13 15 1020.0 - -
22/12:00pm 19.1 15.7 13.7 71 3.1 SSE 24 32 13 17 1020.5 1020.4 -
22/11:30am 18.5 15.4 13.4 72 2.9 SSE 22 32 12 17 1021.0 - -
22/11:00am 17.6 14.8 13.3 76 2.4 S 20 28 11 15 1021.5 1021.4 -
22/10:30am 18.9 17.2 14.6 76 2.5 S 17 24 9 13 1021.9 - -
22/10:00am 18.4 16.1 14.1 76 2.5 S 19 26 10 14 1022.1 1022.0 -
22/09:30am 17.5 15.0 13.4 77 2.3 S 19 24 10 13 1022.3 - -
22/09:00am 17.0 14.9 13.7 81 1.9 S 17 24 9 13 1022.3 1022.2 -
22/08:30am 16.5 13.9 13.2 81 1.9 SSW 19 24 10 13 1022.0 - -
22/08:00am 16.0 13.7 12.9 82 1.7 SSW 17 22 9 12 1021.9 1021.8 -
22/07:30am 15.4 12.9 12.3 82 1.7 S 17 20 9 11 1021.6 - -
22/07:00am 14.6 11.7 12.3 86 1.3 SSW 19 22 10 12 1021.2 1021.1 -
22/06:30am 14.6 12.0 11.9 84 1.5 SSW 17 20 9 11 1021.1 - -
22/06:00am 15.2 13.1 12.5 84 1.5 SSW 15 19 8 10 1020.9 1020.8 -
22/05:30am 15.2 13.3 13.1 87 1.2 SSW 15 17 8 9 1020.7 - -
22/05:00am 14.9 13.0 13.1 89 1.0 S 15 19 8 10 1020.3 1020.2 -
22/04:30am 14.2 11.7 12.4 89 1.0 SSW 17 20 9 11 1020.2 - -
22/04:00am 14.7 12.4 12.9 89 1.0 S 17 19 9 10 1020.3 1020.2 -
22/03:30am 14.9 12.4 12.4 85 1.4 S 17 20 9 11 1020.6 - -
22/03:00am 16.0 13.5 12.2 78 2.1 S 17 22 9 12 1020.7 1020.6 -
22/02:30am 17.0 13.8 11.3 69 3.1 ESE 19 22 10 12 1020.5 - -
22/02:00am 17.1 13.8 10.9 67 3.3 ESE 19 22 10 12 1020.7 1020.6 -
22/01:30am 17.0 14.2 11.3 69 3.1 ESE 17 22 9 12 1021.0 - -
22/01:00am 17.2 13.7 11.0 67 3.3 ESE 20 24 11 13 1021.2 1021.1 -
22/12:30am 17.1 13.7 10.7 66 3.4 ESE 19 22 10 12 1021.2 - -
22/12:00am 17.3 14.0 10.9 66 3.4 ESE 19 22 10 12 1021.5 1021.4 -
 
Date/Time
EST
Temp
°C
App
Temp
°C
Dew
Point
Rel
Hum
%
Delta-T
°C
Wind Press
QNH
hPa
Press
MSL
hPa
Rain
since 9 am
mm
Dir
 
Spd
km/h
Gust
km/h
Spd
kts
Gust
kts
21/11:30pm 17.5 13.9 11.8 69 3.1 ESE 22 26 12 14 1021.6 - -
21/11:00pm 17.6 13.2 11.8 69 3.2 ESE 26 32 14 17 1021.6 1021.5 -
21/10:30pm 17.5 13.1 11.8 69 3.1 ESE 26 32 14 17 1021.8 - -
21/10:00pm 17.5 12.8 12.0 70 3.0 ESE 28 33 15 18 1021.9 1021.8 -
21/09:30pm 17.5 12.1 12.2 71 2.9 ESE 32 35 17 19 1021.9 - -
21/09:00pm 17.6 12.1 12.5 72 2.8 ESE 33 39 18 21 1021.6 1021.5 -
21/08:30pm 17.5 12.0 12.6 73 2.7 ESE 33 39 18 21 1021.6 - -
21/08:00pm 17.6 12.6 13.3 76 2.4 ESE 32 39 17 21 1021.7 1021.6 -
21/07:30pm 17.7 12.5 13.4 76 2.4 ESE 33 41 18 22 1021.6 - -
21/07:00pm 17.8 12.6 12.9 73 2.7 ESE 32 37 17 20 1021.7 1021.6 -
21/06:30pm 17.5 12.9 12.4 72 2.8 ESE 28 33 15 18 1021.6 - -
21/06:00pm 17.5 12.4 11.8 69 3.1 ESE 30 35 16 19 1021.4 1021.3 -
21/05:30pm 17.5 13.0 12.6 73 2.7 ESE 28 35 15 19 1020.9 - -
21/05:00pm 17.2 11.8 12.1 72 2.8 ESE 32 39 17 21 1020.7 1020.6 -
21/04:30pm 17.5 12.4 13.8 79 2.1 SE 33 41 18 22 1020.5 - -
21/04:00pm 17.4 12.0 12.9 75 2.5 ESE 33 39 18 21 1020.2 1020.1 -
21/03:30pm 16.9 11.6 13.2 79 2.1 SE 33 39 18 21 1020.0 - -
21/03:00pm 16.2 10.0 13.9 86 1.3 SE 39 46 21 25 1019.9 1019.8 -
21/02:30pm 16.4 11.4 13.9 85 1.4 SSE 33 48 18 26 1019.9 - -
21/02:00pm 16.3 11.5 14.0 86 1.3 SSE 32 39 17 21 1020.0 1019.9 -
21/01:30pm 16.9 11.3 14.4 85 1.4 SSE 37 46 20 25 1020.0 - -
21/01:00pm 16.5 13.2 14.9 90 0.9 S 26 37 14 20 1020.4 1020.3 -
21/12:30pm 17.3 14.3 15.8 91 0.9 S 26 33 14 18 1020.8 - -
21/12:00pm 17.0 13.1 15.5 91 0.9 SSE 30 43 16 23 1021.2 1021.1 -
21/11:30am 16.1 12.3 14.8 92 0.8 S 28 37 15 20 1021.7 - -
21/11:00am 16.0 12.3 13.8 87 1.2 S 26 35 14 19 1022.3 1022.2 -
21/10:30am 16.3 13.3 13.8 85 1.4 S 22 32 12 17 1022.5 - -
21/10:00am 16.8 13.6 14.3 85 1.4 S 24 32 13 17 1022.5 1022.4 -

Other Formats:

Comma delimited format used in spreadsheet applications
http://www.bom.gov.au/fwo/IDQ60801/IDQ60801.94594.axf

JavaScript Object Notation format (JSON) in row-major order
http://www.bom.gov.au/fwo/IDQ60801/IDQ60801.94594.json